createdAt,value
2023-01-12T00:00:46.219Z,9.87
2023-01-12T00:02:48.966Z,8.83
2023-01-12T00:04:53.009Z,10.07
2023-01-12T00:06:55.842Z,12.67
2023-01-12T00:08:59.303Z,8.70
2023-01-12T00:11:02.398Z,8.60
2023-01-12T00:13:05.100Z,7.17
2023-01-12T00:15:09.241Z,13.77
2023-01-12T00:17:14.319Z,5.37
2023-01-12T00:19:18.528Z,9.13
2023-01-12T00:21:22.647Z,8.37
2023-01-12T00:23:30.255Z,10.87
2023-01-12T00:25:32.958Z,8.07
2023-01-12T00:27:35.719Z,11.03
2023-01-12T00:29:38.901Z,11.30
2023-01-12T00:31:41.749Z,9.27
2023-01-12T00:33:44.555Z,10.03
2023-01-12T00:35:47.343Z,10.37
2023-01-12T00:37:51.397Z,12.03
2023-01-12T00:40:01.819Z,7.63
2023-01-12T00:42:23.453Z,10.27
2023-01-12T00:44:44.335Z,7.80
2023-01-12T00:46:47.127Z,12.60
2023-01-12T00:48:49.827Z,14.47
2023-01-12T00:50:52.562Z,10.83
2023-01-12T00:52:56.699Z,9.97
2023-01-12T00:54:59.859Z,6.37
2023-01-12T00:57:03.134Z,12.07
2023-01-12T00:59:06.649Z,7.90
2023-01-12T01:01:10.375Z,12.10
2023-01-12T01:03:13.195Z,10.97
2023-01-12T01:05:16.041Z,9.10
2023-01-12T01:07:21.507Z,9.77
2023-01-12T01:09:25.709Z,13.70
2023-01-12T01:11:28.440Z,10.13
2023-01-12T01:13:31.347Z,7.37
2023-01-12T01:15:34.099Z,12.43
2023-01-12T01:17:36.878Z,7.93
2023-01-12T01:19:39.635Z,7.97
2023-01-12T01:21:42.418Z,12.30
2023-01-12T01:23:46.033Z,8.17
2023-01-12T01:25:50.143Z,11.57
2023-01-12T01:27:52.899Z,7.67
2023-01-12T01:29:55.664Z,10.03
2023-01-12T01:31:58.732Z,10.63
2023-01-12T01:34:01.495Z,10.07
2023-01-12T01:36:04.947Z,9.57
2023-01-12T01:38:07.894Z,8.93
2023-01-12T01:40:11.786Z,9.70
2023-01-12T01:42:27.923Z,9.60
2023-01-12T01:44:53.937Z,8.70
2023-01-12T01:47:01.669Z,8.97
2023-01-12T01:49:16.137Z,10.17
2023-01-12T01:51:18.915Z,12.67
2023-01-12T01:53:25.109Z,11.23
2023-01-12T01:55:30.717Z,6.83
2023-01-12T01:57:40.876Z,9.23
2023-01-12T01:59:49.804Z,8.50
2023-01-12T02:01:54.534Z,7.80
2023-01-12T02:03:58.118Z,17.20
2023-01-12T02:06:01.329Z,9.20
2023-01-12T02:08:09.193Z,11.83
2023-01-12T02:10:12.618Z,10.97
2023-01-12T02:12:33.423Z,7.30
2023-01-12T02:14:55.107Z,9.80
2023-01-12T02:17:07.577Z,6.37
2023-01-12T02:19:29.999Z,11.70
2023-01-12T02:22:00.262Z,10.60
2023-01-12T02:24:31.562Z,9.97
2023-01-12T02:27:09.030Z,9.50
2023-01-12T02:29:44.327Z,9.00
2023-01-12T02:31:56.400Z,9.97
2023-01-12T02:34:09.365Z,8.87
2023-01-12T02:36:20.213Z,6.87
2023-01-12T02:38:32.212Z,10.60
2023-01-12T02:40:39.593Z,16.17
2023-01-12T02:42:44.873Z,11.53
2023-01-12T02:44:54.039Z,7.40
2023-01-12T02:46:59.369Z,12.13
2023-01-12T02:49:06.067Z,9.00
2023-01-12T02:51:14.506Z,8.37
2023-01-12T02:53:21.667Z,9.43
2023-01-12T02:55:26.656Z,10.03
2023-01-12T02:57:31.469Z,8.63
2023-01-12T02:59:36.828Z,14.27
2023-01-12T03:01:41.996Z,10.67
2023-01-12T03:03:47.588Z,11.10
2023-01-12T03:05:51.788Z,9.10
2023-01-12T03:07:59.745Z,10.47
2023-01-12T03:10:16.880Z,6.30
2023-01-12T03:12:24.532Z,9.23
2023-01-12T03:14:29.735Z,6.00
2023-01-12T03:16:36.381Z,9.07
2023-01-12T03:18:44.037Z,7.80
2023-01-12T03:20:52.718Z,9.20
2023-01-12T03:23:01.270Z,5.63
2023-01-12T03:25:10.323Z,8.80
2023-01-12T03:27:19.355Z,10.40
2023-01-12T03:29:30.685Z,11.73
2023-01-12T03:31:33.860Z,10.20
2023-01-12T03:33:36.893Z,7.77
2023-01-12T03:35:44.619Z,10.70
2023-01-12T03:37:55.804Z,8.67
2023-01-12T03:40:03.483Z,7.23
2023-01-12T03:42:14.204Z,12.93
2023-01-12T03:44:22.089Z,11.50
2023-01-12T03:46:28.976Z,5.60
2023-01-12T03:48:37.477Z,9.33
2023-01-12T03:50:44.842Z,8.03
2023-01-12T03:52:50.406Z,10.80
2023-01-12T03:54:56.755Z,7.70
2023-01-12T03:56:59.969Z,6.33
2023-01-12T03:59:03.528Z,8.13
2023-01-12T04:01:07.169Z,6.93
2023-01-12T04:03:12.489Z,6.17
2023-01-12T04:05:16.776Z,7.97
2023-01-12T04:07:19.786Z,5.63
2023-01-12T04:09:25.759Z,7.67
2023-01-12T04:11:46.029Z,6.73
2023-01-12T04:13:48.735Z,6.57
2023-01-12T04:15:51.467Z,6.70
2023-01-12T04:17:54.306Z,7.77
2023-01-12T04:19:57.048Z,6.10
2023-01-12T04:22:22.990Z,5.47
2023-01-12T04:24:27.039Z,5.63
2023-01-12T04:26:29.765Z,5.43
2023-01-12T04:28:32.496Z,6.80
2023-01-12T04:30:35.708Z,5.37
2023-01-12T04:32:38.934Z,7.43
2023-01-12T04:34:41.731Z,4.73
2023-01-12T04:36:44.540Z,6.70
2023-01-12T04:38:47.703Z,5.00
2023-01-12T04:40:56.138Z,5.20
2023-01-12T04:43:07.984Z,5.53
2023-01-12T04:45:11.612Z,7.03
2023-01-12T04:47:14.470Z,6.23
2023-01-12T04:49:17.456Z,7.40
2023-01-12T04:51:20.256Z,5.93
2023-01-12T04:53:24.559Z,6.97
2023-01-12T04:55:27.363Z,9.23
2023-01-12T04:57:31.788Z,6.20
2023-01-12T04:59:34.548Z,4.73
2023-01-12T05:01:38.986Z,7.67
2023-01-12T05:03:42.516Z,6.07
2023-01-12T05:05:45.316Z,4.27
2023-01-12T05:08:02.111Z,4.30
2023-01-12T05:10:22.670Z,3.40
2023-01-12T05:12:25.415Z,7.87
2023-01-12T05:14:29.709Z,7.03
2023-01-12T05:16:32.673Z,8.33
2023-01-12T05:18:35.410Z,5.57
2023-01-12T05:20:38.131Z,4.03
2023-01-12T05:22:40.945Z,6.63
2023-01-12T05:24:43.692Z,4.17
2023-01-12T05:26:46.404Z,6.73
2023-01-12T05:28:49.862Z,5.03
2023-01-12T05:30:53.965Z,5.83
2023-01-12T05:32:56.819Z,7.63
2023-01-12T05:34:59.531Z,6.53
2023-01-12T05:37:02.642Z,6.87
2023-01-12T05:39:06.291Z,7.67
2023-01-12T05:41:10.725Z,4.73
2023-01-12T05:43:32.223Z,6.27
2023-01-12T05:45:35.061Z,6.77
2023-01-12T05:47:39.317Z,6.73
2023-01-12T05:49:42.035Z,6.97
2023-01-12T05:51:44.764Z,6.17
2023-01-12T05:53:47.718Z,5.37
2023-01-12T05:55:50.444Z,7.40
2023-01-12T05:57:53.264Z,5.80
2023-01-12T05:59:56.016Z,12.27
2023-01-12T06:01:58.836Z,14.43
2023-01-12T06:04:03.199Z,39.73
2023-01-12T06:06:06.398Z,9.13
2023-01-12T06:08:09.177Z,5.60
2023-01-12T06:10:12.948Z,4.33
2023-01-12T06:12:33.329Z,5.27
2023-01-12T06:14:36.424Z,6.30
2023-01-12T06:16:41.227Z,8.00
2023-01-12T06:18:44.033Z,9.57
2023-01-12T06:20:48.062Z,7.27
2023-01-12T06:22:50.735Z,8.90
2023-01-12T06:24:54.517Z,6.07
2023-01-12T06:26:58.562Z,6.53
2023-01-12T06:29:01.401Z,5.47
2023-01-12T06:31:07.036Z,6.43
2023-01-12T06:33:09.717Z,8.60
2023-01-12T06:35:19.041Z,9.30
2023-01-12T06:37:23.908Z,10.00
2023-01-12T06:39:26.604Z,10.57
2023-01-12T06:41:47.085Z,6.60
2023-01-12T06:43:49.779Z,6.63
2023-01-12T06:45:54.682Z,5.40
2023-01-12T06:47:57.458Z,6.50
2023-01-12T06:50:00.309Z,11.20
2023-01-12T06:52:03.091Z,5.57
2023-01-12T06:54:07.172Z,8.10
2023-01-12T06:56:10.023Z,7.53
2023-01-12T06:58:12.740Z,6.30
2023-01-12T07:00:16.088Z,6.77
2023-01-12T07:02:18.918Z,8.47
2023-01-12T07:04:21.825Z,7.27
2023-01-12T07:06:24.580Z,8.87
2023-01-12T07:08:27.731Z,7.83
2023-01-12T07:10:32.565Z,7.43
2023-01-12T07:12:35.334Z,4.83
2023-01-12T07:14:38.097Z,8.20
2023-01-12T07:16:40.979Z,8.03
2023-01-12T07:18:43.789Z,5.27
2023-01-12T07:20:48.599Z,11.17
2023-01-12T07:22:51.378Z,9.97
2023-01-12T07:24:56.021Z,6.70
2023-01-12T07:27:01.376Z,8.13
2023-01-12T07:29:04.119Z,8.70
2023-01-12T07:31:07.847Z,11.27
2023-01-12T07:33:13.258Z,7.27
2023-01-12T07:35:16.743Z,4.40
2023-01-12T07:37:19.475Z,7.67
2023-01-12T07:39:22.201Z,6.73
2023-01-12T07:41:42.342Z,6.70
2023-01-12T07:43:46.380Z,7.37
2023-01-12T07:45:49.157Z,6.47
2023-01-12T07:47:57.660Z,6.50
2023-01-12T07:50:00.382Z,8.03
2023-01-12T07:52:03.157Z,5.50
2023-01-12T07:54:05.968Z,7.07
2023-01-12T07:56:09.509Z,3.80
2023-01-12T07:58:12.255Z,5.37
2023-01-12T08:00:17.409Z,6.40
2023-01-12T08:02:20.177Z,6.27
2023-01-12T08:04:23.464Z,7.57
2023-01-12T08:06:26.221Z,5.57
2023-01-12T08:08:28.927Z,4.70
2023-01-12T08:10:31.850Z,6.33
2023-01-12T08:12:35.743Z,7.93
2023-01-12T08:14:41.234Z,7.60
2023-01-12T08:16:49.659Z,3.70
2023-01-12T08:18:56.815Z,6.60
2023-01-12T08:21:03.375Z,6.03
2023-01-12T08:23:12.003Z,5.10
2023-01-12T08:25:18.744Z,5.40
2023-01-12T08:27:25.854Z,4.07
2023-01-12T08:29:33.316Z,5.50
2023-01-12T08:31:37.432Z,5.80
2023-01-12T08:33:42.367Z,3.53
2023-01-12T08:35:47.013Z,3.60
2023-01-12T08:37:49.835Z,4.07
2023-01-12T08:39:53.714Z,5.30
2023-01-12T08:41:56.544Z,5.47
2023-01-12T08:44:09.433Z,5.47
2023-01-12T08:46:12.183Z,5.33
2023-01-12T08:48:15.074Z,5.27
2023-01-12T08:50:19.165Z,2.87
2023-01-12T08:52:22.031Z,6.30
2023-01-12T08:54:24.874Z,4.00
2023-01-12T08:56:27.676Z,4.60
2023-01-12T08:58:30.463Z,4.70
2023-01-12T09:00:33.249Z,3.23
2023-01-12T09:02:36.115Z,6.47
2023-01-12T09:04:40.452Z,3.67
2023-01-12T09:06:46.772Z,4.43
2023-01-12T09:08:53.569Z,2.60
2023-01-12T09:11:03.170Z,2.90
2023-01-12T09:13:05.898Z,3.07
2023-01-12T09:15:09.619Z,2.63
2023-01-12T09:17:12.355Z,4.03
2023-01-12T09:19:15.689Z,4.17
2023-01-12T09:21:20.325Z,3.67
2023-01-12T09:23:24.457Z,2.47
2023-01-12T09:25:27.184Z,1.90
2023-01-12T09:27:30.017Z,3.23
2023-01-12T09:29:32.696Z,2.07
2023-01-12T09:31:37.392Z,2.43
2023-01-12T09:33:41.356Z,3.37
2023-01-12T09:35:44.452Z,5.10
2023-01-12T09:37:47.269Z,4.97
2023-01-12T09:39:51.384Z,2.60
2023-01-12T09:42:11.749Z,3.57
2023-01-12T09:44:37.209Z,1.00
2023-01-12T09:46:58.231Z,2.30
2023-01-12T09:49:01.133Z,3.47
2023-01-12T09:51:10.976Z,2.43
2023-01-12T09:53:19.418Z,2.43
2023-01-12T09:55:26.602Z,2.20
2023-01-12T09:57:48.877Z,1.70
2023-01-12T09:59:58.002Z,1.43
2023-01-12T10:02:00.947Z,1.10
2023-01-12T10:04:05.675Z,2.37
2023-01-12T10:06:14.998Z,2.30
2023-01-12T10:08:26.043Z,2.23
2023-01-12T10:10:30.257Z,2.27
2023-01-12T10:12:41.942Z,1.47
2023-01-12T10:14:58.525Z,1.03
2023-01-12T10:17:17.765Z,1.10
2023-01-12T10:19:27.828Z,1.57
2023-01-12T10:21:32.694Z,1.60
2023-01-12T10:23:35.619Z,1.40
2023-01-12T10:25:41.639Z,1.20
2023-01-12T10:27:46.404Z,0.70
2023-01-12T10:29:49.551Z,1.27
2023-01-12T10:31:52.287Z,1.53
2023-01-12T10:34:07.829Z,0.97
2023-01-12T10:36:16.590Z,1.50
2023-01-12T10:38:25.652Z,1.30
2023-01-12T10:40:31.699Z,1.47
2023-01-12T10:42:55.442Z,3.70
2023-01-12T10:45:17.339Z,0.83
2023-01-12T10:47:20.445Z,1.20
2023-01-12T10:49:25.047Z,1.93
2023-01-12T10:51:29.894Z,2.00
2023-01-12T10:53:39.007Z,1.13
2023-01-12T10:55:43.666Z,0.77
2023-01-12T10:57:48.896Z,2.70
2023-01-12T10:59:54.768Z,2.73
2023-01-12T11:02:15.267Z,2.33
2023-01-12T11:04:21.639Z,2.83
2023-01-12T11:06:27.762Z,2.30
2023-01-12T11:08:31.289Z,1.73
2023-01-12T11:10:36.611Z,1.57
2023-01-12T11:12:41.405Z,4.83
2023-01-12T11:14:59.242Z,4.70
2023-01-12T11:17:22.437Z,2.33
2023-01-12T11:19:29.652Z,3.90
2023-01-12T11:21:38.012Z,3.03
2023-01-12T11:23:50.234Z,1.87
2023-01-12T11:25:54.205Z,15.83
2023-01-12T11:28:01.945Z,3.73
2023-01-12T11:30:16.248Z,1.47
2023-01-12T11:32:27.735Z,4.67
2023-01-12T11:34:36.065Z,28.37
2023-01-12T11:36:43.023Z,35.03
2023-01-12T11:38:47.674Z,3.43
2023-01-12T11:40:50.783Z,9.00
2023-01-12T11:43:14.050Z,1.53
2023-01-12T11:45:23.047Z,2.13
2023-01-12T11:47:30.220Z,2.10
2023-01-12T11:49:41.012Z,3.50
2023-01-12T11:51:44.517Z,1.80
2023-01-12T11:53:47.670Z,1.57
2023-01-12T11:56:06.111Z,3.33
2023-01-12T11:58:19.219Z,1.47
2023-01-12T12:00:50.611Z,0.70
2023-01-12T12:03:05.654Z,1.10
2023-01-12T12:05:28.152Z,0.63
2023-01-12T12:07:43.669Z,1.30
2023-01-12T12:10:05.528Z,0.50
2023-01-12T12:12:16.982Z,2.33
2023-01-12T12:14:39.497Z,0.60
2023-01-12T12:16:53.312Z,0.60
2023-01-12T12:19:13.987Z,0.70
2023-01-12T12:21:34.318Z,1.07
2023-01-12T12:23:48.213Z,1.80
2023-01-12T12:25:58.911Z,0.50
2023-01-12T12:28:13.876Z,0.70
2023-01-12T12:30:34.762Z,0.93
2023-01-12T12:32:44.850Z,1.43
2023-01-12T12:35:02.347Z,0.63
2023-01-12T12:37:09.939Z,0.50
2023-01-12T12:39:36.442Z,0.60
2023-01-12T12:42:03.735Z,0.83
2023-01-12T12:44:41.065Z,0.70
2023-01-12T12:46:56.051Z,0.93
2023-01-12T12:49:05.007Z,1.20
2023-01-12T12:51:10.134Z,0.60
2023-01-12T12:53:20.329Z,0.67
2023-01-12T12:55:23.060Z,0.50
2023-01-12T12:57:25.900Z,0.43
2023-01-12T12:59:55.168Z,1.00
2023-01-12T13:02:00.005Z,0.60
2023-01-12T13:04:05.900Z,1.00
2023-01-12T13:06:18.690Z,1.73
2023-01-12T13:08:23.940Z,0.80
2023-01-12T13:10:32.468Z,0.90
2023-01-12T13:12:36.463Z,0.80
2023-01-12T13:14:41.500Z,0.83
2023-01-12T13:16:48.863Z,0.97
2023-01-12T13:19:32.733Z,1.10
2023-01-12T13:21:56.277Z,1.10
2023-01-12T13:24:28.777Z,1.37
2023-01-12T13:26:43.263Z,1.20
2023-01-12T13:28:45.959Z,1.53
2023-01-12T13:30:52.598Z,2.27
2023-01-12T13:33:00.427Z,1.87
2023-01-12T13:35:22.995Z,1.47
2023-01-12T13:37:38.012Z,0.90
2023-01-12T13:39:44.847Z,2.30
2023-01-12T13:42:05.643Z,2.13
2023-01-12T13:44:13.419Z,2.23
2023-01-12T13:46:18.881Z,4.50
2023-01-12T13:48:22.652Z,16.60
2023-01-12T13:50:29.481Z,2.53
2023-01-12T13:52:34.026Z,5.63
2023-01-12T13:54:48.516Z,6.53
2023-01-12T13:56:56.131Z,2.47
2023-01-12T13:59:03.884Z,2.83
2023-01-12T14:01:08.634Z,3.03
2023-01-12T14:03:23.868Z,1.70
2023-01-12T14:05:56.045Z,0.80
2023-01-12T14:08:09.416Z,2.00
2023-01-12T14:10:24.802Z,1.33
2023-01-12T14:12:42.764Z,2.00
2023-01-12T14:15:23.430Z,0.70
2023-01-12T14:17:47.782Z,0.80
2023-01-12T14:19:51.466Z,1.97
2023-01-12T14:22:00.006Z,0.67
2023-01-12T14:24:16.822Z,1.93
2023-01-12T14:26:23.915Z,2.13
2023-01-12T14:28:26.682Z,0.70
2023-01-12T14:30:30.137Z,1.03
2023-01-12T14:32:32.899Z,2.03
2023-01-12T14:34:38.051Z,0.47
2023-01-12T14:36:45.932Z,0.50
2023-01-12T14:38:50.743Z,0.57
2023-01-12T14:40:59.968Z,1.03
2023-01-12T14:43:21.353Z,1.13
2023-01-12T14:45:43.861Z,1.13
2023-01-12T14:47:46.672Z,1.70
2023-01-12T14:49:50.501Z,0.60
2023-01-12T14:51:54.881Z,0.70
2023-01-12T14:54:01.289Z,2.40
2023-01-12T14:56:26.080Z,1.13
2023-01-12T14:58:29.100Z,1.37
2023-01-12T15:00:34.873Z,1.03
2023-01-12T15:02:40.855Z,1.77
2023-01-12T15:04:53.471Z,0.70
2023-01-12T15:07:04.510Z,0.83
2023-01-12T15:09:25.685Z,1.10
2023-01-12T15:11:34.781Z,1.20
2023-01-12T15:13:38.612Z,0.60
2023-01-12T15:15:59.220Z,0.73
2023-01-12T15:18:19.448Z,1.30
2023-01-12T15:20:45.193Z,0.70
2023-01-12T15:23:20.093Z,1.67
2023-01-12T15:25:39.335Z,0.90
2023-01-12T15:27:42.112Z,1.77
2023-01-12T15:29:45.246Z,0.57
2023-01-12T15:31:48.117Z,1.10
2023-01-12T15:33:50.915Z,0.87
2023-01-12T15:35:53.704Z,0.60
2023-01-12T15:37:58.426Z,1.70
2023-01-12T15:40:01.400Z,0.80
2023-01-12T15:42:21.273Z,0.60
2023-01-12T15:44:24.086Z,0.80
2023-01-12T15:46:26.868Z,1.30
2023-01-12T15:48:29.589Z,1.30
2023-01-12T15:50:32.694Z,0.77
2023-01-12T15:52:35.454Z,0.60
2023-01-12T15:54:38.202Z,0.60
2023-01-12T15:56:41.336Z,1.90
2023-01-12T15:58:45.425Z,3.40
2023-01-12T16:00:48.390Z,5.43
2023-01-12T16:02:52.599Z,1.57
2023-01-12T16:04:55.408Z,0.60
2023-01-12T16:06:59.325Z,0.60
2023-01-12T16:09:02.247Z,1.50
2023-01-12T16:11:13.230Z,0.70
2023-01-12T16:13:16.001Z,2.27
2023-01-12T16:15:22.361Z,0.70
2023-01-12T16:17:25.127Z,0.70
2023-01-12T16:19:28.267Z,1.10
2023-01-12T16:21:30.981Z,0.70
2023-01-12T16:23:33.987Z,0.83
2023-01-12T16:25:38.303Z,0.83
2023-01-12T16:27:41.638Z,0.90
2023-01-12T16:29:44.920Z,1.63
2023-01-12T16:31:49.009Z,1.40
2023-01-12T16:33:52.186Z,1.20
2023-01-12T16:35:56.365Z,0.57
2023-01-12T16:37:59.114Z,1.10
2023-01-12T16:40:02.168Z,0.93
2023-01-12T16:42:05.145Z,0.57
2023-01-12T16:44:07.897Z,0.60
2023-01-12T16:46:12.187Z,0.87
2023-01-12T16:48:16.289Z,0.60
2023-01-12T16:50:19.221Z,0.93
2023-01-12T16:52:23.258Z,0.60
2023-01-12T16:54:26.024Z,0.80
2023-01-12T16:56:29.215Z,0.83
2023-01-12T16:58:32.016Z,0.60
2023-01-12T17:00:36.227Z,1.20
2023-01-12T17:02:40.397Z,0.60
2023-01-12T17:04:45.720Z,1.53
2023-01-12T17:06:48.923Z,2.63
2023-01-12T17:08:52.369Z,1.33
2023-01-12T17:10:55.509Z,1.77
2023-01-12T17:13:00.114Z,1.30
2023-01-12T17:15:05.568Z,1.03
2023-01-12T17:17:11.171Z,0.70
2023-01-12T17:19:14.080Z,0.87
2023-01-12T17:21:19.627Z,0.70
2023-01-12T17:23:22.585Z,0.60
2023-01-12T17:25:25.363Z,0.60
2023-01-12T17:27:28.257Z,0.70
2023-01-12T17:29:31.153Z,0.57
2023-01-12T17:31:34.132Z,1.00
2023-01-12T17:33:37.759Z,1.40
2023-01-12T17:35:40.441Z,1.17
2023-01-12T17:37:44.548Z,1.47
2023-01-12T17:39:47.468Z,0.87
2023-01-12T17:42:07.745Z,1.00
2023-01-12T17:44:10.715Z,0.80
2023-01-12T17:46:19.246Z,1.40
2023-01-12T17:48:22.078Z,0.70
2023-01-12T17:50:24.883Z,1.23
2023-01-12T17:52:27.697Z,1.20
2023-01-12T17:54:31.927Z,2.17
2023-01-12T17:56:35.500Z,3.20
2023-01-12T17:58:38.406Z,4.77
2023-01-12T18:00:41.196Z,1.43
2023-01-12T18:02:44.403Z,1.57
2023-01-12T18:04:47.534Z,1.20
2023-01-12T18:06:50.544Z,1.40
2023-01-12T18:08:55.168Z,0.80
2023-01-12T18:11:01.954Z,0.87
2023-01-12T18:13:04.721Z,5.37
2023-01-12T18:15:08.506Z,3.93
2023-01-12T18:17:11.406Z,8.30
2023-01-12T18:19:15.030Z,1.77
2023-01-12T18:21:20.591Z,4.13
2023-01-12T18:23:23.547Z,4.07
2023-01-12T18:25:26.281Z,30.53
2023-01-12T18:27:30.283Z,20.63
2023-01-12T18:29:33.216Z,4.47
2023-01-12T18:31:37.474Z,6.10
2023-01-12T18:33:40.678Z,1.17
2023-01-12T18:35:43.362Z,3.47
2023-01-12T18:37:47.169Z,2.10
2023-01-12T18:39:50.603Z,2.50
2023-01-12T18:48:04.601Z,1.93
2023-01-12T18:50:25.973Z,1.17
2023-01-12T18:52:46.297Z,2.13
2023-01-12T18:54:53.343Z,2.77
2023-01-12T18:56:56.269Z,2.73
2023-01-12T18:58:59.260Z,1.77
2023-01-12T19:01:05.032Z,1.03
2023-01-12T19:03:09.362Z,0.97
2023-01-12T19:05:22.938Z,1.20
2023-01-12T19:07:32.745Z,1.17
2023-01-12T19:09:34.725Z,2.10
2023-01-12T19:11:38.581Z,0.57
2023-01-12T19:13:58.912Z,1.73
2023-01-12T19:16:19.229Z,1.20
2023-01-12T19:18:23.628Z,0.93
2023-01-12T19:20:29.367Z,1.47
2023-01-12T19:22:50.060Z,0.60
2023-01-12T19:25:10.500Z,1.20
2023-01-12T19:27:31.427Z,0.97
2023-01-12T19:29:35.490Z,1.53
2023-01-12T19:31:38.411Z,0.77
2023-01-12T19:33:43.496Z,1.10
2023-01-12T19:35:47.861Z,0.97
2023-01-12T19:37:51.616Z,1.20
2023-01-12T19:40:01.041Z,3.40
2023-01-12T19:42:21.956Z,1.43
2023-01-12T19:44:24.858Z,1.80
2023-01-12T19:46:28.025Z,1.90
2023-01-12T19:48:32.678Z,2.33
2023-01-12T19:50:37.871Z,8.37
2023-01-12T19:52:42.552Z,9.90
2023-01-12T19:54:46.601Z,13.97
2023-01-12T19:56:49.615Z,9.00
2023-01-12T19:58:52.564Z,2.43
2023-01-12T20:00:56.070Z,2.70
2023-01-12T20:02:59.409Z,3.10
2023-01-12T20:05:02.576Z,3.93
2023-01-12T20:07:08.113Z,5.17
2023-01-12T20:09:11.854Z,2.60
2023-01-12T20:11:15.450Z,2.47
2023-01-12T20:13:18.508Z,1.23
2023-01-12T20:15:21.782Z,0.90
2023-01-12T20:17:24.757Z,2.40
2023-01-12T20:19:27.706Z,3.17
2023-01-12T20:21:30.922Z,3.13
2023-01-12T20:23:35.263Z,0.90
2023-01-12T20:25:39.519Z,1.63
2023-01-12T20:27:42.616Z,0.90
2023-01-12T20:29:45.470Z,3.57
2023-01-12T20:31:50.064Z,2.83
2023-01-12T20:33:55.341Z,2.53
2023-01-12T20:35:58.409Z,2.47
2023-01-12T20:38:03.232Z,2.90
2023-01-12T20:40:08.735Z,2.37
2023-01-12T20:42:11.745Z,3.20
2023-01-12T20:44:16.867Z,5.83
2023-01-12T20:46:19.790Z,2.47
2023-01-12T20:48:22.791Z,3.13
2023-01-12T20:50:26.002Z,1.20
2023-01-12T20:52:29.741Z,1.00
2023-01-12T20:54:32.589Z,2.20
2023-01-12T20:56:36.842Z,2.40
2023-01-12T20:58:40.395Z,2.20
2023-01-12T21:00:43.784Z,0.93
2023-01-12T21:02:46.862Z,0.83
2023-01-12T21:04:50.392Z,2.10
2023-01-12T21:06:53.290Z,1.13
2023-01-12T21:08:56.155Z,0.50
2023-01-12T21:11:00.310Z,0.63
2023-01-12T21:13:05.328Z,0.70
2023-01-12T21:15:09.263Z,1.00
2023-01-12T21:17:12.173Z,0.50
2023-01-12T21:19:16.064Z,1.10
2023-01-12T21:21:19.109Z,0.73
2023-01-12T21:23:22.331Z,1.03
2023-01-12T21:25:27.919Z,1.80
2023-01-12T21:27:31.105Z,1.27
2023-01-12T21:29:35.755Z,1.10
2023-01-12T21:31:38.851Z,0.50
2023-01-12T21:33:41.771Z,0.73
2023-01-12T21:35:44.683Z,0.50
2023-01-12T21:37:47.563Z,0.40
2023-01-12T21:39:50.409Z,0.67
2023-01-12T21:42:10.617Z,1.03
2023-01-12T21:44:13.464Z,0.83
2023-01-12T21:46:18.256Z,1.27
2023-01-12T21:48:23.841Z,0.40
2023-01-12T21:50:26.744Z,0.57
2023-01-12T21:52:33.296Z,0.60
2023-01-12T21:54:36.184Z,1.27
2023-01-12T21:56:38.961Z,0.40
2023-01-12T21:58:41.770Z,0.50
2023-01-12T22:00:44.637Z,0.50
2023-01-12T22:02:50.996Z,0.40
2023-01-12T22:04:53.774Z,0.73
2023-01-12T22:06:56.585Z,0.43
2023-01-12T22:09:00.014Z,3.03
2023-01-12T22:11:07.747Z,0.70
2023-01-12T22:13:15.842Z,0.90
2023-01-12T22:15:19.051Z,1.57
2023-01-12T22:17:21.881Z,0.60
2023-01-12T22:19:26.320Z,0.80
2023-01-12T22:21:29.239Z,0.67
2023-01-12T22:23:32.251Z,0.87
2023-01-12T22:25:35.049Z,0.83
2023-01-12T22:27:41.342Z,0.33
2023-01-12T22:29:44.203Z,0.70
2023-01-12T22:31:47.331Z,0.40
2023-01-12T22:33:54.095Z,0.63
2023-01-12T22:35:58.506Z,0.40
2023-01-12T22:38:01.344Z,0.33
2023-01-12T22:40:04.751Z,0.30
2023-01-12T22:42:07.680Z,0.30
2023-01-12T22:44:09.673Z,0.30
2023-01-12T22:46:16.782Z,0.67
2023-01-12T22:48:19.775Z,0.30
2023-01-12T22:50:23.513Z,0.40
2023-01-12T22:52:28.192Z,0.30
2023-01-12T22:54:31.117Z,0.40
2023-01-12T22:56:33.965Z,0.63
2023-01-12T22:58:36.861Z,0.37
2023-01-12T23:00:40.005Z,0.30
2023-01-12T23:03:01.630Z,0.20
2023-01-12T23:05:05.884Z,0.40
2023-01-12T23:07:08.905Z,0.63
2023-01-12T23:09:13.271Z,0.67
2023-01-12T23:11:18.371Z,0.30
2023-01-12T23:13:22.202Z,0.43
2023-01-12T23:15:25.871Z,0.83
2023-01-12T23:17:30.722Z,0.40
2023-01-12T23:19:34.233Z,0.30
2023-01-12T23:21:37.237Z,0.80
2023-01-12T23:23:40.245Z,0.40
2023-01-12T23:25:48.405Z,0.30
2023-01-12T23:27:52.386Z,0.73
2023-01-12T23:29:55.418Z,1.20
2023-01-12T23:31:58.337Z,0.30
2023-01-12T23:34:01.488Z,0.40
2023-01-12T23:36:06.740Z,0.40
2023-01-12T23:38:15.423Z,0.57
2023-01-12T23:40:18.592Z,1.53
2023-01-12T23:42:22.942Z,2.83
2023-01-12T23:44:25.912Z,0.30
2023-01-12T23:46:30.634Z,0.47
2023-01-12T23:48:33.793Z,0.40
2023-01-12T23:50:36.710Z,0.30
2023-01-12T23:52:40.178Z,0.30
2023-01-12T23:54:43.171Z,0.53
2023-01-12T23:56:46.104Z,0.40
2023-01-12T23:58:50.504Z,1.17
